Time;durP1;ratioP1;P1;durP2;ratioP2;P2;SDS_P1;SDS_P2;PMS_P1;PMS_P2;Temp;Humidity;BMP_temperature;BMP_pressure;BME280_temperature;BME280_humidity;BME280_pressure;Samples;Min_cycle;Max_cycle;Signal;HPM_P1;HPM_P2
2022/04/23 00:00:51;;;;;;;3.50;2.53;;;19.50;50.10;;;;;;4890392;28;107304;-72
2022/04/23 00:03:18;;;;;;;3.08;2.58;;;19.50;50.10;;;;;;4891287;28;100543;-72
2022/04/23 00:05:47;;;;;;;2.90;2.55;;;19.50;50.00;;;;;;4891413;28;98769;-72
2022/04/23 00:08:12;;;;;;;3.92;2.40;;;19.50;50.10;;;;;;4874584;28;99098;-72
2022/04/23 00:10:38;;;;;;;3.42;2.83;;;19.50;50.20;;;;;;4890795;28;101465;-72
2022/04/23 00:13:04;;;;;;;2.95;2.58;;;19.50;51.00;;;;;;4891766;28;100234;-72
2022/04/23 00:15:37;;;;;;;3.38;2.50;;;19.40;50.10;;;;;;4895024;28;98848;-71
2022/04/23 00:18:12;;;;;;;4.30;2.30;;;19.50;50.20;;;;;;4875365;28;99060;-71
2022/04/23 00:20:38;;;;;;;2.85;2.65;;;19.50;50.00;;;;;;4892189;28;100546;-72
2022/04/23 00:23:05;;;;;;;4.05;2.60;;;19.50;50.10;;;;;;4889892;28;99919;-72
2022/04/23 00:25:32;;;;;;;3.63;2.67;;;19.40;50.00;;;;;;4891706;28;98727;-72
2022/04/23 00:27:58;;;;;;;3.05;2.53;;;19.40;50.00;;;;;;4891057;28;99350;-72
2022/04/23 00:30:24;;;;;;;3.13;2.70;;;19.40;50.10;;;;;;4890976;28;99178;-72
2022/04/23 00:32:49;;;;;;;3.13;2.80;;;19.40;50.00;;;;;;4889692;28;99664;-72
2022/04/23 00:35:17;;;;;;;4.00;2.67;;;19.40;50.00;;;;;;4890446;28;99863;-72
2022/04/23 00:37:44;;;;;;;3.92;2.70;;;19.40;50.00;;;;;;4890369;28;98946;-72
2022/04/23 00:40:17;;;;;;;3.25;2.72;;;19.40;50.00;;;;;;4890586;28;100247;-72
2022/04/23 00:42:54;;;;;;;3.10;2.80;;;19.40;50.00;;;;;;4890784;28;98963;-71
2022/04/23 00:45:20;;;;;;;3.47;2.95;;;19.40;50.10;;;;;;4889187;28;99202;-72
2022/04/23 00:47:46;;;;;;;3.35;2.80;;;19.40;50.10;;;;;;4890482;28;98841;-72
2022/04/23 00:50:13;;;;;;;2.95;2.65;;;19.40;50.00;;;;;;4889812;28;100406;-72
2022/04/23 00:52:39;;;;;;;2.88;2.60;;;19.40;50.00;;;;;;4890773;28;100118;-72
2022/04/23 00:55:06;;;;;;;3.28;2.97;;;19.40;51.00;;;;;;4890453;28;98553;-72
2022/04/23 00:57:33;;;;;;;5.47;3.30;;;19.40;50.00;;;;;;4890712;28;98632;-72
2022/04/23 01:00:09;;;;;;;3.83;3.13;;;19.40;50.00;;;;;;4889921;28;99941;-72
2022/04/23 01:02:38;;;;;;;3.17;2.78;;;19.40;50.00;;;;;;4891000;28;101090;-72
2022/04/23 01:05:09;;;;;;;3.67;3.28;;;19.40;50.00;;;;;;4890775;28;99917;-72
2022/04/23 01:07:42;;;;;;;3.50;3.20;;;19.40;50.10;;;;;;4890903;28;99111;-72
2022/04/23 01:10:08;;;;;;;3.42;3.13;;;19.40;50.00;;;;;;4889067;28;100411;-72
2022/04/23 01:12:38;;;;;;;4.50;3.40;;;19.40;50.10;;;;;;4889088;28;100607;-72
2022/04/23 01:15:05;;;;;;;3.65;3.17;;;19.40;50.00;;;;;;4889709;28;99119;-71
2022/04/23 01:17:31;;;;;;;4.03;3.35;;;19.30;50.00;;;;;;4890594;28;98489;-72
2022/04/23 01:19:57;;;;;;;4.18;3.45;;;19.30;50.10;;;;;;4888998;28;100126;-72
2022/04/23 01:22:24;;;;;;;4.95;3.30;;;19.30;50.00;;;;;;4889089;28;99422;-72
2022/04/23 01:24:55;;;;;;;3.88;3.33;;;19.40;50.10;;;;;;4888929;28;99910;-71
2022/04/23 01:27:25;;;;;;;4.25;3.38;;;19.40;50.00;;;;;;4889544;28;98641;-71
2022/04/23 01:29:54;;;;;;;3.70;3.40;;;19.30;50.00;;;;;;4889467;28;100797;-72
2022/04/23 01:32:20;;;;;;;3.78;3.47;;;19.30;50.10;;;;;;4888659;28;100890;-72
2022/04/23 01:34:45;;;;;;;4.57;3.80;;;19.30;50.10;;;;;;4890009;28;99113;-72
2022/04/23 01:37:12;;;;;;;4.03;3.63;;;19.30;50.10;;;;;;4889725;28;98693;-72
2022/04/23 01:39:37;;;;;;;4.72;3.90;;;19.30;50.10;;;;;;4889329;28;100569;-72
2022/04/23 01:42:03;;;;;;;3.78;3.47;;;19.30;50.10;;;;;;4888875;28;99916;-72
2022/04/23 01:44:29;;;;;;;4.10;3.70;;;19.30;50.10;;;;;;4888809;28;98985;-73
2022/04/23 01:46:54;;;;;;;4.75;4.25;;;19.30;50.10;;;;;;4889683;28;99135;-72
2022/04/23 01:49:20;;;;;;;4.65;4.18;;;19.30;50.10;;;;;;4889208;28;101213;-72
2022/04/23 01:51:45;;;;;;;4.10;3.75;;;19.30;50.00;;;;;;4893082;28;100560;-71
2022/04/23 01:54:11;;;;;;;4.25;3.85;;;19.30;50.10;;;;;;4891784;28;102265;-71
2022/04/23 01:56:36;;;;;;;4.50;4.10;;;19.30;50.10;;;;;;4893016;28;98621;-72
2022/04/23 01:59:02;;;;;;;4.97;4.03;;;19.30;50.10;;;;;;4892951;28;99292;-71
2022/04/23 02:01:28;;;;;;;4.57;4.10;;;19.30;50.20;;;;;;4892189;28;98935;-72
2022/04/23 02:03:53;;;;;;;5.78;4.43;;;19.30;50.10;;;;;;4892592;28;99115;-72
2022/04/23 02:06:19;;;;;;;5.30;4.53;;;19.20;50.00;;;;;;4893243;28;98458;-71
2022/04/23 02:08:44;;;;;;;5.20;4.70;;;19.20;50.10;;;;;;4892442;28;99413;-72
2022/04/23 02:11:10;;;;;;;5.00;4.50;;;19.20;50.10;;;;;;4892728;28;99108;-72
2022/04/23 02:13:35;;;;;;;5.28;4.38;;;19.20;50.10;;;;;;4892399;28;99357;-70
2022/04/23 02:16:04;;;;;;;5.20;4.70;;;19.20;50.10;;;;;;4892581;28;98656;-72
2022/04/23 02:18:30;;;;;;;4.95;4.38;;;19.20;50.10;;;;;;4892162;28;100316;-72
2022/04/23 02:20:56;;;;;;;4.63;4.13;;;19.20;50.00;;;;;;4891829;28;99882;-72
2022/04/23 02:23:22;;;;;;;4.88;4.38;;;19.20;50.10;;;;;;4892369;28;98986;-72
2022/04/23 02:25:48;;;;;;;5.13;4.63;;;19.20;50.10;;;;;;4892496;28;98580;-72
2022/04/23 02:28:13;;;;;;;5.20;4.70;;;19.20;50.10;;;;;;4892692;28;101290;-72
2022/04/23 02:30:39;;;;;;;5.35;4.85;;;19.10;50.10;;;;;;4874954;28;101688;-71
2022/04/23 02:33:04;;;;;;;5.07;4.55;;;19.20;50.20;;;;;;4893675;28;98630;-72
2022/04/23 02:35:34;;;;;;;5.13;4.63;;;19.10;50.10;;;;;;4892638;28;98746;-72
2022/04/23 02:38:01;;;;;;;5.30;4.70;;;19.20;50.10;;;;;;4891287;28;101364;-72
2022/04/23 02:40:28;;;;;;;5.85;4.93;;;19.10;50.10;;;;;;4893277;28;101604;-72
2022/04/23 02:42:55;;;;;;;5.53;4.97;;;19.20;50.20;;;;;;4893662;28;99668;-71
2022/04/23 02:45:20;;;;;;;5.22;4.72;;;19.20;50.20;;;;;;4892460;28;98622;-72
2022/04/23 02:47:51;;;;;;;5.43;4.93;;;19.20;50.20;;;;;;4890967;28;112551;-72
2022/04/23 02:50:41;;;;;;;5.25;4.75;;;19.10;50.10;;;;;;4891426;28;100210;-71
2022/04/23 02:53:08;;;;;;;5.53;4.93;;;19.20;50.20;;;;;;4891420;28;98967;-71
2022/04/23 02:55:35;;;;;;;5.85;4.90;;;19.20;50.20;;;;;;4892300;28;99964;-71
2022/04/23 02:58:01;;;;;;;6.93;5.45;;;19.20;50.20;;;;;;4891247;28;99188;-72
2022/04/23 03:00:27;;;;;;;5.78;4.95;;;19.20;50.20;;;;;;4890098;28;100772;-72
2022/04/23 03:02:53;;;;;;;5.22;4.72;;;19.20;50.20;;;;;;4891169;28;99405;-72
2022/04/23 03:05:19;;;;;;;5.43;4.93;;;19.20;50.20;;;;;;4891764;28;98580;-72
2022/04/23 03:07:48;;;;;;;5.50;4.75;;;19.10;50.10;;;;;;4891532;28;99203;-71
2022/04/23 03:10:15;;;;;;;5.82;4.90;;;19.10;50.10;;;;;;4891707;28;100487;-72
2022/04/23 03:12:42;;;;;;;5.30;4.80;;;19.10;50.10;;;;;;4891232;28;98535;-72
2022/04/23 03:15:10;;;;;;;5.50;5.00;;;19.10;50.10;;;;;;4892404;28;98610;-72
2022/04/23 04:18:45;;;;;;;6.05;5.45;;;19.00;51.40;;;;;;5490660;23;103076;31
2022/04/23 04:21:13;;;;;;;6.00;5.40;;;19.00;50.40;;;;;;4851609;29;99971;-71
2022/04/23 04:23:40;;;;;;;5.78;5.25;;;19.00;50.50;;;;;;4853884;28;100953;-71
2022/04/23 04:26:07;;;;;;;6.40;5.80;;;19.00;50.40;;;;;;4853045;29;101005;-70
2022/04/23 04:28:32;;;;;;;6.35;5.72;;;19.00;50.40;;;;;;4853074;28;99035;-70
2022/04/23 04:33:42;;;;;;;5.90;5.40;;;19.00;50.40;;;;;;4853167;29;98800;-71
2022/04/23 04:36:08;;;;;;;6.78;5.55;;;19.00;50.40;;;;;;4851650;29;116060;-71
2022/04/23 04:38:34;;;;;;;6.00;5.43;;;19.00;50.40;;;;;;4852505;29;98956;-71
2022/04/23 04:40:59;;;;;;;6.20;5.60;;;19.00;50.40;;;;;;4852437;29;98091;-71
2022/04/23 04:43:25;;;;;;;6.18;5.68;;;18.90;50.40;;;;;;4852822;29;104906;-70
2022/04/23 04:45:51;;;;;;;7.30;5.30;;;18.90;50.40;;;;;;4852290;28;100261;-72
2022/04/23 04:48:16;;;;;;;6.30;5.70;;;19.00;50.70;;;;;;4852378;29;100108;-71
2022/04/23 04:50:42;;;;;;;6.30;5.70;;;19.00;50.80;;;;;;4852242;29;98819;-71
2022/04/23 04:53:07;;;;;;;6.97;5.82;;;19.00;50.80;;;;;;4851601;29;104809;-71
2022/04/23 04:55:34;;;;;;;6.45;5.65;;;19.00;50.80;;;;;;4851048;29;99924;-71
2022/04/23 04:58:00;;;;;;;6.15;5.53;;;19.00;50.80;;;;;;4852311;29;98655;-71
2022/04/23 05:00:27;;;;;;;6.25;5.65;;;19.00;50.70;;;;;;4851840;29;99049;-71
2022/04/23 05:02:54;;;;;;;5.85;5.25;;;19.00;50.80;;;;;;4851704;29;100581;-71
2022/04/23 05:05:20;;;;;;;6.35;5.68;;;19.00;50.80;;;;;;4852726;29;99819;-71
2022/04/23 05:07:45;;;;;;;6.10;5.50;;;19.00;50.80;;;;;;4852952;29;98715;-71
2022/04/23 05:10:11;;;;;;;13.27;5.82;;;19.00;50.90;;;;;;4853076;29;99120;-71
2022/04/23 05:12:36;;;;;;;6.00;5.40;;;19.00;51.10;;;;;;4850985;28;99865;-71
2022/04/23 05:15:02;;;;;;;5.80;5.30;;;19.00;51.10;;;;;;4852036;29;99521;-72
2022/04/23 05:17:29;;;;;;;5.68;5.10;;;19.00;51.20;;;;;;4851836;29;99128;-71
2022/04/23 05:19:54;;;;;;;5.85;5.28;;;19.00;51.20;;;;;;4851752;29;99125;-71
2022/04/23 05:22:20;;;;;;;6.18;5.60;;;19.00;51.40;;;;;;4851141;29;99275;-72
2022/04/23 05:24:45;;;;;;;5.80;5.28;;;19.00;51.30;;;;;;4851297;28;101177;-71
2022/04/23 05:27:11;;;;;;;5.68;5.07;;;19.00;51.40;;;;;;4851506;28;98565;-71
2022/04/23 05:29:36;;;;;;;6.07;5.40;;;19.00;51.40;;;;;;4852199;29;98290;-71
2022/04/23 05:32:02;;;;;;;6.97;5.45;;;19.00;51.50;;;;;;4850815;29;102685;-72
2022/04/23 05:34:28;;;;;;;5.80;5.30;;;19.00;51.50;;;;;;4851226;29;101172;-71
2022/04/23 05:36:54;;;;;;;6.18;5.38;;;19.00;51.60;;;;;;4851681;29;99367;-72
2022/04/23 05:39:21;;;;;;;11.20;5.22;;;19.00;51.70;;;;;;4852066;29;98612;-72
2022/04/23 05:41:47;;;;;;;5.95;5.38;;;19.00;51.80;;;;;;4851875;29;104335;-71
2022/04/23 05:44:12;;;;;;;6.10;5.38;;;19.00;51.60;;;;;;4851330;29;99839;-72
2022/04/23 05:46:38;;;;;;;7.03;5.38;;;19.00;51.40;;;;;;4851033;28;101132;-70
2022/04/23 05:49:03;;;;;;;5.50;5.00;;;19.00;51.50;;;;;;4852463;29;98979;-72
2022/04/23 05:51:29;;;;;;;5.55;5.05;;;19.10;51.40;;;;;;4850989;29;103279;-72
2022/04/23 05:53:54;;;;;;;5.95;5.00;;;19.00;51.60;;;;;;4851542;29;101781;-72
2022/04/23 05:56:20;;;;;;;5.78;5.22;;;19.10;51.40;;;;;;4851208;29;99090;-72
2022/04/23 05:58:46;;;;;;;9.05;5.60;;;19.10;51.40;;;;;;4854003;29;98691;-72
2022/04/23 06:01:12;;;;;;;12.75;5.15;;;19.10;51.40;;;;;;4855526;29;102129;-72
2022/04/23 06:03:37;;;;;;;6.60;4.90;;;19.10;51.80;;;;;;4855284;29;100698;-71
2022/04/23 06:06:03;;;;;;;7.65;5.05;;;19.10;51.90;;;;;;4852875;29;98486;-71
2022/04/23 06:08:29;;;;;;;8.05;5.22;;;19.20;52.00;;;;;;4850988;29;98815;-72
2022/04/23 06:10:55;;;;;;;10.85;4.95;;;19.20;52.10;;;;;;4851092;29;100531;-72
2022/04/23 06:13:20;;;;;;;11.55;5.30;;;19.20;52.40;;;;;;4851764;29;99955;-73
2022/04/23 06:15:46;;;;;;;7.95;4.90;;;19.20;53.00;;;;;;4851004;28;98605;-71
2022/04/23 06:18:12;;;;;;;11.10;5.47;;;19.20;53.50;;;;;;4851903;29;98231;-70
2022/04/23 06:20:37;;;;;;;9.13;5.25;;;19.20;53.60;;;;;;4850019;29;99271;-71
2022/04/23 06:23:04;;;;;;;8.60;5.55;;;19.20;53.70;;;;;;4850085;29;106480;-70
2022/04/23 06:25:31;;;;;;;9.35;5.38;;;19.20;53.70;;;;;;4851293;29;100081;-71
2022/04/23 06:27:57;;;;;;;7.28;5.13;;;19.30;53.80;;;;;;4852204;29;99022;-70
2022/04/23 06:30:24;;;;;;;22.95;5.18;;;19.20;53.80;;;;;;4851418;29;105284;-72
2022/04/23 06:32:50;;;;;;;9.88;5.07;;;19.30;53.80;;;;;;4850928;29;100109;-71
2022/04/23 06:35:16;;;;;;;12.65;5.05;;;19.30;53.50;;;;;;4851411;29;99233;-71
2022/04/23 06:37:41;;;;;;;6.82;4.90;;;19.30;53.30;;;;;;4853701;29;99110;-71
2022/04/23 06:40:11;;;;;;;6.43;5.35;;;19.20;53.20;;;;;;4852419;28;100664;-72
2022/04/23 06:42:41;;;;;;;10.57;5.22;;;19.30;53.10;;;;;;4853492;28;100125;-71
2022/04/23 06:45:07;;;;;;;7.43;5.10;;;19.30;53.10;;;;;;4853834;29;98709;-71
2022/04/23 06:47:32;;;;;;;7.70;4.82;;;19.20;53.10;;;;;;4853725;28;99138;-73
2022/04/23 06:49:59;;;;;;;8.18;5.10;;;19.20;53.00;;;;;;4853520;29;108461;-72
2022/04/23 06:52:25;;;;;;;9.07;5.35;;;19.20;53.00;;;;;;4853263;29;101386;-72
2022/04/23 06:54:54;;;;;;;6.05;4.93;;;19.20;53.00;;;;;;4853961;29;98613;-71
2022/04/23 06:57:23;;;;;;;8.57;4.90;;;19.20;53.00;;;;;;4854469;29;98953;-73
2022/04/23 06:59:49;;;;;;;9.05;5.10;;;19.20;53.10;;;;;;4852745;28;100237;-71
2022/04/23 07:02:16;;;;;;;7.28;4.63;;;19.20;53.00;;;;;;4853388;29;99652;-71
2022/04/23 07:04:41;;;;;;;7.55;4.57;;;19.20;53.00;;;;;;4854779;28;98952;-69
2022/04/23 07:07:08;;;;;;;8.07;4.60;;;19.20;53.00;;;;;;4854953;28;97793;-70
2022/04/23 07:09:33;;;;;;;5.10;4.60;;;19.10;52.80;;;;;;4853085;28;100901;-70
2022/04/23 07:11:59;;;;;;;6.00;4.82;;;19.20;52.90;;;;;;4852880;28;99991;-71
2022/04/23 07:14:25;;;;;;;6.07;4.70;;;19.20;53.00;;;;;;4853319;29;99407;-71
2022/04/23 07:16:51;;;;;;;6.85;5.05;;;19.10;52.80;;;;;;4854207;28;99017;-71
2022/04/23 07:19:16;;;;;;;6.75;4.88;;;19.20;52.80;;;;;;4852712;28;100861;-71
2022/04/23 07:21:42;;;;;;;6.35;4.85;;;19.10;52.80;;;;;;4853073;29;100140;-71
2022/04/23 07:24:10;;;;;;;6.68;4.60;;;19.10;52.70;;;;;;4852867;29;98932;-71
2022/04/23 07:26:37;;;;;;;5.43;4.75;;;19.20;52.80;;;;;;4854156;29;98766;-71
2022/04/23 07:29:08;;;;;;;5.88;4.55;;;19.10;52.60;;;;;;4853864;28;100529;-71
2022/04/23 07:31:35;;;;;;;5.43;4.70;;;19.20;52.60;;;;;;4853714;29;99899;-71
2022/04/23 07:39:29;;;;;;;5.32;4.40;;;19.10;52.60;;;;;;4855213;29;99525;-72
2022/04/23 07:41:56;;;;;;;4.93;4.40;;;19.20;52.60;;;;;;4857460;29;101248;-72
2022/04/23 07:44:22;;;;;;;5.30;4.68;;;19.10;52.60;;;;;;4858455;29;98537;-72
2022/04/23 07:46:49;;;;;;;5.82;5.22;;;19.10;52.50;;;;;;4854573;29;98638;-71
2022/04/23 07:49:15;;;;;;;6.93;4.50;;;19.10;52.50;;;;;;4853365;29;100282;-73
2022/04/23 07:51:43;;;;;;;5.78;4.75;;;19.10;52.50;;;;;;4853105;29;98740;-72
2022/04/23 07:54:08;;;;;;;4.88;4.40;;;19.20;52.50;;;;;;4853448;29;99039;-72
2022/04/23 07:56:35;;;;;;;6.45;4.78;;;19.10;52.40;;;;;;4853664;28;98149;-72
2022/04/23 07:59:00;;;;;;;5.30;4.70;;;19.20;52.40;;;;;;4853433;29;100807;-72
2022/04/23 08:01:27;;;;;;;5.45;4.95;;;19.20;52.40;;;;;;4852711;29;99048;-72
2022/04/23 08:03:52;;;;;;;5.22;4.55;;;19.10;52.30;;;;;;4852617;28;102408;-72
2022/04/23 08:06:18;;;;;;;5.30;4.53;;;19.10;52.30;;;;;;4852621;28;98669;-70
2022/04/23 08:08:43;;;;;;;4.95;4.45;;;19.10;52.30;;;;;;4852311;29;100103;-72
2022/04/23 08:11:09;;;;;;;4.95;4.45;;;19.10;52.30;;;;;;4852408;29;98912;-72
2022/04/23 08:13:36;;;;;;;5.70;5.03;;;19.10;52.20;;;;;;4852602;29;100227;-72
2022/04/23 08:16:03;;;;;;;6.53;4.88;;;19.20;52.30;;;;;;4853839;29;99226;-72
2022/04/23 08:18:29;;;;;;;5.13;4.55;;;19.20;52.20;;;;;;4851787;29;101126;-72
2022/04/23 08:20:55;;;;;;;6.10;5.03;;;19.10;52.20;;;;;;4852231;29;100813;-72
2022/04/23 08:23:21;;;;;;;5.50;4.90;;;19.10;52.10;;;;;;4853038;28;98603;-72
2022/04/23 08:25:47;;;;;;;5.95;4.43;;;19.10;52.10;;;;;;4852048;29;99127;-72
2022/04/23 08:30:58;;;;;;;5.30;4.80;;;19.20;52.10;;;;;;4851578;29;99235;-72
2022/04/23 08:33:57;;;;;;;7.43;4.90;;;19.10;52.10;;;;;;4852145;28;99157;-72
2022/04/23 08:36:09;;;;;;;4.97;4.47;;;19.10;52.10;;;;;;4852147;29;99468;-72
2022/04/23 08:38:37;;;;;;;5.13;4.72;;;19.20;52.10;;;;;;4851349;29;99226;-72
2022/04/23 08:41:04;;;;;;;5.20;4.70;;;19.20;52.20;;;;;;4851128;29;100003;-71
2022/04/23 08:43:31;;;;;;;5.90;4.65;;;19.20;52.10;;;;;;4851471;29;99886;-72
2022/04/23 08:45:57;;;;;;;5.28;4.78;;;19.20;52.00;;;;;;4852850;28;98443;-72
2022/04/23 08:48:27;;;;;;;5.97;4.57;;;19.10;52.00;;;;;;4851959;29;100217;-72
2022/04/23 08:50:59;;;;;;;5.55;5.00;;;19.10;52.00;;;;;;4851248;28;100321;-72
2022/04/23 08:53:29;;;;;;;4.85;4.43;;;19.20;52.00;;;;;;4851314;28;99366;-71
2022/04/23 08:55:56;;;;;;;5.57;4.88;;;19.20;51.90;;;;;;4851922;29;98591;-72
2022/04/23 08:58:23;;;;;;;5.40;4.80;;;19.20;52.00;;;;;;4851442;29;102419;-72
2022/04/23 09:00:49;;;;;;;5.93;4.57;;;19.10;51.90;;;;;;4851876;29;100394;-72
2022/04/23 09:03:15;;;;;;;5.63;4.65;;;19.10;51.80;;;;;;4852284;29;98618;-71
2022/04/23 09:05:43;;;;;;;5.93;4.95;;;19.20;51.90;;;;;;4852966;29;98964;-71
2022/04/23 09:08:09;;;;;;;7.63;4.82;;;19.20;51.80;;;;;;4851329;29;101124;-71
2022/04/23 09:10:47;;;;;;;5.40;4.90;;;19.20;51.90;;;;;;4851397;29;99097;-72
2022/04/23 09:13:28;;;;;;;5.25;4.75;;;19.20;51.90;;;;;;4851350;29;98674;-71
2022/04/23 09:24:47;;;;;;;5.68;5.07;;;19.20;51.70;;;;;;4858558;29;98687;-71
2022/04/23 09:27:14;;;;;;;6.00;5.40;;;19.20;51.70;;;;;;4859766;29;98590;-71
2022/04/23 09:29:40;;;;;;;5.88;5.32;;;19.20;51.70;;;;;;4856966;29;98697;-71
2022/04/23 09:32:19;;;;;;;6.10;5.50;;;19.20;51.70;;;;;;4851989;29;100813;-70
2022/04/23 09:34:44;;;;;;;6.00;5.47;;;19.20;51.60;;;;;;4851247;29;98951;-71
2022/04/23 09:37:10;;;;;;;6.03;5.53;;;19.20;51.60;;;;;;4850818;29;97818;-70
2022/04/23 09:39:38;;;;;;;5.70;5.20;;;19.20;51.50;;;;;;4834119;29;100960;-70
2022/04/23 09:42:11;;;;;;;7.53;6.57;;;19.30;51.60;;;;;;4850201;28;100278;-70
2022/04/23 09:44:37;;;;;;;6.15;5.55;;;19.20;51.40;;;;;;4851068;29;99489;-70
2022/04/23 09:47:02;;;;;;;6.18;5.57;;;19.30;51.50;;;;;;4851016;29;98778;-70
2022/04/23 09:49:28;;;;;;;6.10;5.20;;;19.30;51.40;;;;;;4850761;29;100473;-71
2022/04/23 09:52:03;;;;;;;6.30;5.63;;;19.30;51.40;;;;;;4850361;28;118454;-71
2022/04/23 09:54:31;;;;;;;6.13;5.60;;;19.30;51.40;;;;;;4850850;29;98901;-71
2022/04/23 09:56:57;;;;;;;5.90;5.40;;;19.30;51.30;;;;;;4852285;29;99168;-71
2022/04/23 09:59:23;;;;;;;5.85;5.20;;;19.30;51.20;;;;;;4850597;28;100608;-71
2022/04/23 10:01:50;;;;;;;6.45;5.85;;;19.40;51.20;;;;;;4853477;29;100116;-72
2022/04/23 10:04:24;;;;;;;6.50;5.90;;;19.40;51.20;;;;;;4851036;28;98682;-71
2022/04/23 10:06:50;;;;;;;7.40;5.97;;;19.40;51.10;;;;;;4851807;29;98527;-71
2022/04/23 10:09:19;;;;;;;6.78;6.07;;;19.40;51.10;;;;;;4850483;29;100886;-73
2022/04/23 10:11:49;;;;;;;6.70;5.78;;;19.40;51.10;;;;;;4853792;29;100621;-70
2022/04/23 10:14:19;;;;;;;6.55;5.90;;;19.40;51.00;;;;;;4854748;29;100050;-71
2022/04/23 10:16:48;;;;;;;6.40;5.80;;;19.50;51.00;;;;;;4854402;28;99344;-71
2022/04/23 10:19:15;;;;;;;6.15;5.55;;;19.50;51.00;;;;;;4854063;29;99995;-71
2022/04/23 10:22:03;;;;;;;6.50;5.88;;;19.50;51.00;;;;;;4853406;28;98806;-71
2022/04/23 10:24:49;;;;;;;6.80;6.07;;;19.50;50.90;;;;;;4854032;29;99189;-71
2022/04/23 10:27:15;;;;;;;7.20;5.97;;;19.50;51.00;;;;;;4854151;29;97890;-72
2022/04/23 10:29:41;;;;;;;6.72;6.07;;;19.50;50.90;;;;;;4854860;29;99396;-71
2022/04/23 10:32:13;;;;;;;6.00;5.50;;;19.50;51.00;;;;;;4854028;29;99056;-70
2022/04/23 10:34:42;;;;;;;6.43;5.55;;;19.60;50.90;;;;;;4854157;29;99963;-72
2022/04/23 10:37:24;;;;;;;6.57;5.90;;;19.60;51.00;;;;;;4854149;28;98863;-71
2022/04/23 10:39:57;;;;;;;6.57;5.90;;;19.60;50.90;;;;;;4853857;28;101217;-71
2022/04/23 10:42:25;;;;;;;6.75;6.05;;;19.60;50.90;;;;;;4854173;29;100263;-71
2022/04/23 10:44:55;;;;;;;6.15;5.55;;;19.60;50.90;;;;;;4854862;29;98965;-72
2022/04/23 10:47:32;;;;;;;7.00;6.30;;;19.60;50.90;;;;;;4854993;29;98760;-72
2022/04/23 10:50:17;;;;;;;6.95;6.05;;;19.70;50.90;;;;;;4853983;29;100768;-71
2022/04/23 10:52:44;;;;;;;6.55;5.88;;;19.70;50.90;;;;;;4853981;29;100274;-70
2022/04/23 10:55:13;;;;;;;6.13;5.53;;;19.70;50.90;;;;;;4854586;29;99116;-71
2022/04/23 10:57:39;;;;;;;6.40;5.80;;;19.70;51.90;;;;;;4853478;28;98574;-71
2022/04/23 11:00:15;;;;;;;6.57;5.97;;;19.70;50.80;;;;;;4853343;29;101320;-71
2022/04/23 11:02:41;;;;;;;6.18;5.38;;;19.70;50.80;;;;;;4855064;29;101123;-71
2022/04/23 11:13:56;;;;;;;6.50;5.90;;;19.70;50.90;;;;;;4853653;29;98655;-71
2022/04/23 11:16:24;;;;;;;6.65;5.70;;;19.70;50.80;;;;;;4853602;28;99256;-72
2022/04/23 11:18:53;;;;;;;6.40;5.80;;;19.70;50.80;;;;;;4852889;29;98022;-72
2022/04/23 11:21:26;;;;;;;6.20;5.50;;;19.70;50.80;;;;;;4852582;29;100172;-72
2022/04/23 11:23:54;;;;;;;6.18;5.68;;;19.70;50.70;;;;;;4852946;29;100888;-72
2022/04/23 11:26:26;;;;;;;6.65;5.85;;;19.70;50.80;;;;;;4853291;29;99825;-72
2022/04/23 11:28:59;;;;;;;7.63;5.97;;;19.70;50.70;;;;;;4853346;29;98915;-72
2022/04/23 11:31:26;;;;;;;6.70;6.10;;;19.70;50.70;;;;;;4853321;29;99312;-70
2022/04/23 11:34:00;;;;;;;5.95;5.35;;;19.70;50.70;;;;;;4852994;29;99995;-71
2022/04/23 11:36:28;;;;;;;6.43;5.80;;;19.70;50.70;;;;;;4854025;28;98849;-71
2022/04/23 11:38:55;;;;;;;6.35;5.68;;;19.70;50.70;;;;;;4854351;29;98622;-71
2022/04/23 11:41:30;;;;;;;6.47;5.72;;;19.70;50.80;;;;;;4853647;29;99148;-72
2022/04/23 11:43:55;;;;;;;6.95;6.25;;;19.80;50.70;;;;;;4836158;29;99110;-72
2022/04/23 11:46:21;;;;;;;6.75;6.05;;;19.80;50.70;;;;;;4853654;29;98645;-72
2022/04/23 11:48:48;;;;;;;6.85;5.65;;;19.80;50.70;;;;;;4853542;29;99080;-71
2022/04/23 11:51:21;;;;;;;6.75;6.05;;;19.80;51.80;;;;;;4851996;29;101896;-72
2022/04/23 11:53:56;;;;;;;7.78;5.88;;;19.80;50.70;;;;;;4852914;29;99644;-71
2022/04/23 11:56:33;;;;;;;6.40;5.80;;;19.80;50.70;;;;;;4853022;28;98773;-71
2022/04/23 11:59:09;;;;;;;6.13;5.53;;;19.80;50.80;;;;;;4852561;29;98743;-71
2022/04/23 12:01:36;;;;;;;6.35;5.75;;;19.70;50.70;;;;;;4852384;29;101344;-71
2022/04/23 12:04:02;;;;;;;6.47;5.88;;;19.80;50.80;;;;;;4852419;29;100454;-71
2022/04/23 12:06:44;;;;;;;6.45;5.85;;;19.70;50.80;;;;;;4853059;29;98610;-71
2022/04/23 12:09:11;;;;;;;6.05;5.53;;;19.80;50.80;;;;;;4852683;29;97784;-72
2022/04/23 12:11:37;;;;;;;6.40;5.80;;;19.80;50.90;;;;;;4852175;29;100497;-71
2022/04/23 12:14:03;;;;;;;6.28;5.60;;;19.70;50.80;;;;;;4852114;29;99988;-72
2022/04/23 12:16:43;;;;;;;6.10;5.50;;;19.80;50.80;;;;;;4851588;28;99946;-72
2022/04/23 12:19:12;;;;;;;7.32;6.00;;;19.80;50.90;;;;;;4851913;29;98691;-73
2022/04/23 12:21:39;;;;;;;8.90;5.75;;;19.80;50.90;;;;;;4851597;29;99755;-72
2022/04/23 12:24:07;;;;;;;10.73;6.35;;;19.80;51.00;;;;;;4851630;29;98972;-71
2022/04/23 12:26:38;;;;;;;21.02;9.50;;;19.80;50.80;;;;;;4852649;29;99004;-71
2022/04/23 12:43:32;;;;;;;20.42;11.52;;;19.90;48.50;;;;;;4851812;29;99962;-70
2022/04/23 12:46:09;;;;;;;21.27;11.65;;;19.90;48.10;;;;;;4855611;28;101000;-70
2022/04/23 12:48:58;;;;;;;14.70;11.73;;;19.90;47.80;;;;;;4856538;28;98638;-71
2022/04/23 12:51:24;;;;;;;11.38;10.18;;;19.80;47.20;;;;;;4851664;29;98767;-70
2022/04/23 12:53:50;;;;;;;16.33;11.07;;;19.80;47.60;;;;;;4851294;29;99336;-69
2022/04/23 12:56:18;;;;;;;19.35;11.65;;;19.80;47.20;;;;;;4850984;28;99428;-69
2022/04/23 12:58:43;;;;;;;14.45;11.32;;;19.80;47.20;;;;;;4850177;29;98675;-71
2022/04/23 13:01:09;;;;;;;13.88;10.85;;;19.90;47.00;;;;;;4852040;29;98007;-71
2022/04/23 13:03:43;;;;;;;13.18;11.40;;;19.90;46.90;;;;;;4851301;29;100488;-71
2022/04/23 13:08:54;;;;;;;15.93;10.73;;;20.00;46.30;;;;;;4851396;29;99291;-71
2022/04/23 13:11:33;;;;;;;14.57;10.85;;;20.00;46.10;;;;;;4851977;29;98670;-73
2022/04/23 13:14:04;;;;;;;16.52;10.32;;;20.00;46.30;;;;;;4852079;29;100267;-71
2022/04/23 13:16:31;;;;;;;14.43;10.43;;;20.00;46.20;;;;;;4850852;28;100756;-70
2022/04/23 13:19:02;;;;;;;14.00;10.63;;;20.10;46.20;;;;;;4851101;29;99317;-71
2022/04/23 13:21:29;;;;;;;16.92;11.13;;;20.10;45.90;;;;;;4850833;29;98697;-71
2022/04/23 13:23:56;;;;;;;22.08;10.88;;;20.10;45.80;;;;;;4851112;29;100490;-72
2022/04/23 13:26:24;;;;;;;17.67;10.57;;;20.10;45.40;;;;;;4851221;29;100228;-72
2022/04/23 13:28:50;;;;;;;18.00;10.40;;;20.10;45.40;;;;;;4851886;29;98895;-71
2022/04/23 13:31:16;;;;;;;17.38;10.68;;;20.20;45.50;;;;;;4851733;29;98646;-72
2022/04/23 13:33:43;;;;;;;14.63;9.82;;;20.20;45.50;;;;;;4850171;28;99949;-69
2022/04/23 13:36:09;;;;;;;16.00;10.10;;;20.20;45.30;;;;;;4850591;29;100724;-70
2022/04/23 13:38:38;;;;;;;18.23;9.80;;;20.20;45.10;;;;;;4851379;29;98692;-73
2022/04/23 13:41:04;;;;;;;16.45;10.27;;;20.30;45.00;;;;;;4852463;29;99289;-72
2022/04/23 13:43:31;;;;;;;19.55;9.88;;;20.30;44.90;;;;;;4851056;29;99961;-72
2022/04/23 13:45:57;;;;;;;13.60;9.73;;;20.30;45.90;;;;;;4850866;29;100146;-72
2022/04/23 13:48:28;;;;;;;39.20;11.25;;;20.30;44.60;;;;;;4851788;29;98745;-72
2022/04/23 13:50:55;;;;;;;25.90;9.57;;;20.30;44.40;;;;;;4851929;29;98332;-71
2022/04/23 13:53:21;;;;;;;17.48;8.75;;;20.30;44.30;;;;;;4851053;29;100447;-71
2022/04/23 13:55:47;;;;;;;14.70;9.68;;;20.30;44.20;;;;;;4850886;29;99046;-70
2022/04/23 13:58:13;;;;;;;12.50;9.48;;;20.30;44.20;;;;;;4850204;29;99617;-71
2022/04/23 14:00:39;;;;;;;12.38;9.18;;;20.30;43.90;;;;;;4851788;29;98984;-70
2022/04/23 14:11:18;;;;;;;10.60;7.95;;;20.20;44.00;;;;;;4849918;29;98859;-69
2022/04/23 14:13:44;;;;;;;15.30;8.57;;;20.20;43.70;;;;;;4849508;29;99788;-72
2022/04/23 14:16:09;;;;;;;17.42;8.60;;;20.20;43.80;;;;;;4849502;29;113788;-70
2022/04/23 14:18:35;;;;;;;14.15;7.85;;;20.20;43.80;;;;;;4849936;29;99947;-71
2022/04/23 14:21:01;;;;;;;10.30;7.75;;;20.20;43.70;;;;;;4850484;29;98674;-70
2022/04/23 14:23:26;;;;;;;11.98;8.25;;;20.10;43.30;;;;;;4851484;29;101445;-70
2022/04/23 14:25:53;;;;;;;15.85;8.35;;;20.10;43.10;;;;;;4854498;29;99859;-71
2022/04/23 14:28:19;;;;;;;14.32;7.60;;;20.10;43.20;;;;;;4857625;29;99066;-71
2022/04/23 14:30:45;;;;;;;9.82;8.05;;;20.10;43.20;;;;;;4852690;28;98687;-71
2022/04/23 14:33:12;;;;;;;12.70;7.68;;;20.10;43.30;;;;;;4834361;29;102452;-70
2022/04/23 14:35:37;;;;;;;10.30;7.05;;;20.10;43.30;;;;;;4850375;29;102109;-70
2022/04/23 14:38:04;;;;;;;11.10;7.70;;;20.10;43.20;;;;;;4851780;29;98684;-70